Aviation Digital Data Service (ADDS)

Output produced by METARs form (2100 UTC 31 January 2023)
found at http://www.aviationweather.gov/metar/data/
 
KCXY 312056Z 33006KT 10SM OVC055 03/M06 A3018 RMK AO2 SLP224 T00331056 56014
KCXY 311956Z 35005KT 10SM SCT037 OVC060 04/M05 A3019 RMK AO2 SLP227 T00391050
KCXY 311856Z 31008KT 10SM OVC070 04/M05 A3021 RMK AO2 SLP232 T00391050
KCXY 311756Z 33007KT 10SM SCT032 BKN041 OVC070 04/M04 A3022 RMK AO2 SLP238 T00391044 10044 20033 58010
KCXY 311656Z 35008KT 10SM OVC036 04/M04 A3024 RMK AO2 SLP242 T00391044
KCXY 311556Z 33008KT 10SM BKN039 BKN090 OVC110 04/M04 A3025 RMK AO2 SLP247 T00441039
KCXY 311456Z 33006KT 10SM FEW038 OVC075 04/M04 A3026 RMK AO2 SLP248 T00441039 51016
KCXY 311356Z 32010KT 10SM OVC075 04/M04 A3024 RMK AO2 SLP242 T00391039
KCXY 311256Z 32009KT 10SM OVC080 04/M03 A3023 RMK AO2 SLP240 T00391033
KCXY 311156Z 31009KT 10SM BKN065 OVC085 04/M03 A3021 RMK AO2 SLP233 60000 T00391033 10094 20039 53027
KCXY 311123Z AUTO 33006KT 10SM FEW016 BKN031 OVC060 04/00 A3019 RMK AO2 T00440000
KCXY 311056Z AUTO 36008KT 10SM BKN021 OVC028 04/00 A3017 RMK AO2 SLP219 T00440000
KCXY 310956Z AUTO 32007KT 10SM BKN020 OVC042 05/01 A3014 RMK AO2 RAE33 SLP210 P0000 T00500011
KCXY 310856Z AUTO 32007KT 10SM -RA OVC032 05/01 A3013 RMK AO2 RAB18 SLP204 P0000 60000 T00500011 53019
KCXY 310808Z AUTO 34006KT 10SM OVC030 07/02 A3011 RMK AO2 T00670017
KCXY 310756Z AUTO 34007KT 10SM OVC029 07/02 A3010 RMK AO2 SLP196 T00720022
KCXY 310656Z AUTO 34009KT 10SM BKN026 OVC036 09/02 A3008 RMK AO2 SLP187 T00890022
KCXY 310556Z AUTO 34007KT 10SM FEW037 OVC046 09/04 A3007 RMK AO2 SLP185 T00940039 10117 20072 55001
KCXY 310456Z AUTO 34004KT 10SM FEW050 FEW075 09/04 A3007 RMK AO2 SLP183 T00890044 401440022
KCXY 310356Z AUTO 00000KT 10SM SCT044 OVC060 10/05 A3007 RMK AO2 SLP184 T01000050
KCXY 310256Z AUTO 15005KT 10SM OVC049 11/05 A3007 RMK AO2 SLP186 T01060050 50001
KCXY 310156Z 26003KT 10SM OVC045 11/05 A3008 RMK AO2 SLP189 T01110050
KCXY 310056Z 24005KT 10SM BKN046 OVC055 12/05 A3007 RMK AO2 SLP187 T01170050
KCXY 302356Z 00000KT 10SM OVC044 11/04 A3007 RMK AO2 SLP186 T01060044 10144 20106 58002
KCXY 302256Z 24003KT 10SM BKN100 11/04 A3007 RMK AO2 SLP185 T01110044
KCXY 302156Z 22003KT 10SM OVC050 13/05 A3009 RMK AO2 SLP191 T01280050
KCXY 302056Z 27006KT 10SM OVC040 13/04 A3008 RMK AO2 SLP187 T01330044 55012
KCXY 301956Z 19004KT 10SM SCT034 13/04 A3005 RMK AO2 SLP179 T01280044
KCXY 301856Z 22010G14KT 10SM SCT041 14/04 A3007 RMK AO2 SLP183 T01390044
KCXY 301756Z 22005KT 10SM SCT041 OVC070 12/04 A3011 RMK AO2 SLP199 T01220044 10128 20022 58025
KCXY 301656Z 25005KT 10SM OVC044 10/04 A3016 RMK AO2 SLP216 T01000044
KCXY 301556Z 00000KT 10SM OVC044 09/04 A3019 RMK AO2 SLP224 T00940039
KCXY 301456Z 00000KT 10SM CLR 09/03 A3019 RMK AO2 SLP225 T00890033 53009
KCXY 301356Z 00000KT 8SM CLR 06/02 A3018 RMK AO2 SLP224 T00560022
KCXY 301256Z 00000KT 6SM BR CLR 03/01 A3016 RMK AO2 SLP217 T00280006
KCXY 301156Z 00000KT 10SM FEW050 03/01 A3016 RMK AO2 SLP217 T00280011 10061 20028 58004
KCXY 301056Z AUTO 00000KT 10SM CLR 04/01 A3017 RMK AO2 SLP220 T00390011
KCXY 300956Z AUTO 00000KT 10SM OVC049 04/02 A3017 RMK AO2 SLP220 T00440017